createdAt,value
2022-12-23T00:01:38.177Z,29.39
2022-12-23T00:04:05.509Z,29.21
2022-12-23T00:06:32.819Z,29.52
2022-12-23T00:09:00.423Z,29.41
2022-12-23T00:11:28.618Z,29.39
2022-12-23T00:14:20.449Z,29.49
2022-12-23T00:16:49.398Z,29.47
2022-12-23T00:19:16.724Z,29.34
2022-12-23T00:21:43.936Z,29.36
2022-12-23T00:24:12.067Z,29.48
2022-12-23T00:26:39.437Z,29.53
2022-12-23T00:29:07.291Z,29.46
2022-12-23T00:31:34.549Z,29.47
2022-12-23T00:34:01.822Z,29.41
2022-12-23T00:36:29.979Z,29.42
2022-12-23T00:39:16.333Z,29.34
2022-12-23T00:42:02.385Z,29.41
2022-12-23T00:44:29.805Z,29.46
2022-12-23T00:46:57.040Z,29.71
2022-12-23T00:49:42.677Z,29.54
2022-12-23T00:52:12.028Z,29.46
2022-12-23T00:54:39.385Z,29.36
2022-12-23T00:57:06.766Z,29.43
2022-12-23T00:59:34.322Z,29.57
2022-12-23T01:02:20.444Z,29.54
2022-12-23T01:05:06.432Z,29.57
2022-12-23T01:07:33.816Z,29.54
2022-12-23T01:10:01.206Z,29.69
2022-12-23T01:12:28.717Z,29.53
2022-12-23T01:14:55.949Z,29.61
2022-12-23T01:17:23.267Z,29.71
2022-12-23T01:19:51.520Z,29.44
2022-12-23T01:22:18.883Z,29.57
2022-12-23T01:24:46.110Z,29.46
2022-12-23T01:27:13.337Z,29.68
2022-12-23T01:29:40.655Z,29.48
2022-12-23T01:32:08.164Z,29.66
2022-12-23T01:34:37.383Z,29.68
2022-12-23T01:37:05.159Z,29.53
2022-12-23T01:39:32.759Z,29.76
2022-12-23T01:42:18.663Z,29.68
2022-12-23T01:44:49.211Z,29.73
2022-12-23T01:47:37.063Z,29.86
2022-12-23T01:50:04.417Z,29.84
2022-12-23T01:52:34.026Z,29.71
2022-12-23T01:55:01.545Z,29.85
2022-12-23T01:57:29.616Z,29.89
2022-12-23T02:00:15.199Z,29.78
2022-12-23T02:03:04.362Z,29.85
2022-12-23T02:05:32.123Z,29.68
2022-12-23T02:08:17.698Z,29.70
2022-12-23T02:11:17.494Z,29.47
2022-12-23T02:14:04.644Z,29.71
2022-12-23T02:16:34.521Z,29.59
2022-12-23T02:19:10.031Z,29.58
2022-12-23T02:21:40.299Z,29.61
2022-12-23T02:24:22.974Z,29.69
2022-12-23T02:26:56.567Z,29.72
2022-12-23T02:29:42.553Z,29.69
2022-12-23T02:32:12.939Z,29.80
2022-12-23T02:34:54.252Z,29.92
2022-12-23T02:37:21.606Z,29.81
2022-12-23T02:39:56.649Z,29.76
2022-12-23T02:42:26.967Z,29.67
2022-12-23T02:45:01.536Z,29.77
2022-12-23T02:47:32.837Z,29.73
2022-12-23T02:50:03.796Z,29.75
2022-12-23T02:52:32.686Z,29.71
2022-12-23T02:55:09.515Z,29.72
2022-12-23T02:57:39.341Z,29.84
2022-12-23T03:00:07.775Z,29.98
2022-12-23T03:02:37.551Z,30.08
2022-12-23T03:05:05.619Z,29.67
2022-12-23T03:07:38.890Z,29.71
2022-12-23T03:10:22.561Z,29.73
2022-12-23T03:12:56.649Z,29.70
2022-12-23T03:15:23.989Z,29.53
2022-12-23T03:17:54.165Z,29.47
2022-12-23T03:20:27.145Z,29.58
2022-12-23T03:22:54.419Z,29.56
2022-12-23T03:25:32.943Z,29.34
2022-12-23T03:28:05.379Z,29.43
2022-12-23T03:30:34.338Z,29.71
2022-12-23T03:33:08.005Z,29.67
2022-12-23T03:35:39.231Z,29.60
2022-12-23T03:38:07.460Z,29.57
2022-12-23T03:40:48.191Z,29.67
2022-12-23T03:43:20.964Z,29.52
2022-12-23T03:45:51.104Z,29.69
2022-12-23T03:48:29.578Z,29.82
2022-12-23T03:50:59.518Z,29.66
2022-12-23T03:53:36.297Z,29.68
2022-12-23T03:56:12.312Z,29.43
2022-12-23T03:58:39.631Z,29.59
2022-12-23T04:01:17.995Z,29.60
2022-12-23T04:04:00.531Z,29.73
2022-12-23T04:06:31.819Z,29.49
2022-12-23T04:08:59.395Z,29.70
2022-12-23T04:11:26.637Z,29.46
2022-12-23T04:13:54.193Z,29.60
2022-12-23T04:16:21.648Z,29.76
2022-12-23T04:18:49.081Z,29.63
2022-12-23T04:21:16.332Z,29.61
2022-12-23T04:23:43.577Z,29.49
2022-12-23T04:26:10.746Z,29.70
2022-12-23T04:28:38.262Z,29.88
2022-12-23T04:31:05.536Z,29.79
2022-12-23T04:33:32.966Z,29.61
2022-12-23T04:36:01.039Z,29.71
2022-12-23T04:38:28.391Z,29.78
2022-12-23T04:40:55.592Z,29.55
2022-12-23T04:43:22.872Z,29.89
2022-12-23T04:45:51.360Z,29.69
2022-12-23T04:48:18.775Z,29.65
2022-12-23T04:50:46.041Z,29.61
2022-12-23T04:53:13.458Z,29.82
2022-12-23T04:55:40.650Z,30.07
2022-12-23T04:58:08.137Z,29.68
2022-12-23T05:00:39.457Z,29.70
2022-12-23T05:03:07.482Z,29.59
2022-12-23T05:05:34.832Z,29.83
2022-12-23T05:08:02.890Z,29.76
2022-12-23T05:10:30.142Z,29.70
2022-12-23T05:12:58.430Z,30.05
2022-12-23T05:15:25.914Z,29.73
2022-12-23T05:17:53.237Z,29.70
2022-12-23T05:20:20.539Z,29.98
2022-12-23T05:22:47.894Z,29.82
2022-12-23T05:25:15.135Z,29.86
2022-12-23T05:27:42.404Z,30.02
2022-12-23T05:30:10.373Z,30.03
2022-12-23T05:32:39.461Z,29.86
2022-12-23T05:35:07.013Z,30.09
2022-12-23T05:37:34.312Z,30.14
2022-12-23T05:40:01.659Z,30.05
2022-12-23T05:42:30.068Z,29.93
2022-12-23T05:44:57.370Z,29.89
2022-12-23T05:47:24.633Z,29.97
2022-12-23T05:49:51.829Z,29.96
2022-12-23T05:52:19.061Z,29.91
2022-12-23T05:54:46.422Z,29.95
2022-12-23T05:57:13.611Z,29.99
2022-12-23T05:59:41.038Z,29.99
2022-12-23T06:02:08.703Z,29.87
2022-12-23T06:04:36.201Z,30.07
2022-12-23T06:07:03.468Z,30.14
2022-12-23T06:09:30.947Z,30.01
2022-12-23T06:11:58.168Z,29.93
2022-12-23T06:14:29.003Z,30.07
2022-12-23T06:16:57.061Z,30.12
2022-12-23T06:19:24.821Z,29.84
2022-12-23T06:21:52.266Z,30.20
2022-12-23T06:24:19.506Z,30.00
2022-12-23T06:26:48.073Z,29.93
2022-12-23T06:29:16.969Z,29.98
2022-12-23T06:31:44.888Z,29.96
2022-12-23T06:34:12.207Z,30.36
2022-12-23T06:36:39.353Z,30.10
2022-12-23T06:39:07.063Z,30.02
2022-12-23T06:41:34.262Z,29.92
2022-12-23T06:44:01.541Z,30.18
2022-12-23T06:46:28.841Z,30.28
2022-12-23T06:48:56.295Z,30.21
2022-12-23T06:51:23.490Z,30.27
2022-12-23T06:53:50.824Z,30.32
2022-12-23T06:56:18.645Z,30.37
2022-12-23T06:58:46.042Z,30.15
2022-12-23T07:01:13.497Z,30.79
2022-12-23T07:03:41.106Z,30.47
2022-12-23T07:06:08.584Z,30.18
2022-12-23T07:08:35.882Z,30.29
2022-12-23T07:11:03.855Z,30.48
2022-12-23T07:13:32.039Z,30.29
2022-12-23T07:15:59.648Z,30.25
2022-12-23T07:18:27.171Z,30.52
2022-12-23T07:20:54.413Z,30.58
2022-12-23T07:23:21.751Z,30.49
2022-12-23T07:25:48.943Z,30.45
2022-12-23T07:28:16.165Z,30.21
2022-12-23T07:30:43.572Z,30.52
2022-12-23T07:33:10.996Z,30.43
2022-12-23T07:35:38.332Z,30.24
2022-12-23T07:38:05.597Z,30.14
2022-12-23T07:40:32.892Z,30.07
2022-12-23T07:43:00.305Z,30.40
2022-12-23T07:45:28.510Z,30.33
2022-12-23T07:47:57.013Z,29.92
2022-12-23T07:50:24.698Z,30.25
2022-12-23T07:52:52.375Z,30.13
2022-12-23T07:55:20.377Z,30.48
2022-12-23T07:57:48.241Z,30.29
2022-12-23T08:00:15.557Z,30.03
2022-12-23T08:02:43.125Z,30.14
2022-12-23T08:05:10.982Z,30.09
2022-12-23T08:07:38.663Z,30.35
2022-12-23T08:10:06.893Z,30.35
2022-12-23T08:12:34.349Z,30.05
2022-12-23T08:15:01.583Z,30.09
2022-12-23T08:17:29.815Z,29.38
2022-12-23T08:19:57.376Z,29.84
2022-12-23T08:22:25.033Z,30.10
2022-12-23T08:24:52.778Z,30.18
2022-12-23T08:27:20.168Z,30.11
2022-12-23T08:29:47.551Z,30.25
2022-12-23T08:32:15.155Z,30.03
2022-12-23T08:34:42.367Z,30.25
2022-12-23T08:37:09.755Z,30.36
2022-12-23T08:39:37.011Z,30.20
2022-12-23T08:42:04.427Z,30.17
2022-12-23T08:44:32.786Z,30.45
2022-12-23T08:47:00.071Z,30.49
2022-12-23T08:49:27.415Z,30.41
2022-12-23T08:51:55.031Z,30.44
2022-12-23T08:54:23.865Z,30.20
2022-12-23T08:56:51.359Z,30.10
2022-12-23T08:59:19.911Z,30.00
2022-12-23T09:01:48.382Z,30.44
2022-12-23T09:04:15.817Z,30.42
2022-12-23T09:06:43.608Z,30.47
2022-12-23T09:09:15.580Z,30.35
2022-12-23T09:11:43.181Z,30.34
2022-12-23T09:14:11.359Z,30.11
2022-12-23T09:16:38.678Z,30.43
2022-12-23T09:19:06.067Z,30.21
2022-12-23T09:21:33.616Z,30.43
2022-12-23T09:24:00.877Z,30.36
2022-12-23T09:26:30.232Z,30.51
2022-12-23T09:28:57.915Z,30.16
2022-12-23T09:31:29.272Z,30.48
2022-12-23T09:34:01.752Z,30.37
2022-12-23T09:36:29.952Z,30.30
2022-12-23T09:38:58.072Z,30.17
2022-12-23T09:41:29.163Z,30.02
2022-12-23T09:44:02.292Z,30.37
2022-12-23T09:46:34.288Z,30.29
2022-12-23T09:49:09.298Z,30.46
2022-12-23T09:51:36.595Z,30.29
2022-12-23T09:54:09.646Z,30.16
2022-12-23T09:56:52.109Z,30.32
2022-12-23T09:59:28.175Z,30.12
2022-12-23T10:02:25.039Z,30.07
2022-12-23T10:05:10.926Z,30.11
2022-12-23T10:07:38.444Z,30.34
2022-12-23T10:10:12.160Z,30.27
2022-12-23T10:12:42.169Z,30.18
2022-12-23T10:15:27.932Z,30.04
2022-12-23T10:17:57.158Z,30.34
2022-12-23T10:20:30.042Z,30.24
2022-12-23T10:22:58.242Z,30.23
2022-12-23T10:25:33.074Z,29.99
2022-12-23T10:28:00.517Z,30.04
2022-12-23T10:30:57.358Z,30.12
2022-12-23T10:33:34.341Z,30.39
2022-12-23T10:36:05.163Z,30.31
2022-12-23T10:38:51.350Z,30.23
2022-12-23T10:41:21.295Z,30.45
2022-12-23T10:44:00.323Z,30.29
2022-12-23T10:46:36.838Z,30.33
2022-12-23T10:49:20.429Z,30.23
2022-12-23T10:51:52.481Z,30.31
2022-12-23T10:54:29.329Z,30.39
2022-12-23T10:56:56.658Z,30.44
2022-12-23T10:59:31.357Z,30.33
2022-12-23T11:02:05.705Z,30.30
2022-12-23T11:04:35.375Z,30.36
2022-12-23T11:07:34.412Z,30.23
2022-12-23T11:09:50.595Z,30.18
2022-12-23T11:12:22.282Z,30.17
2022-12-23T11:14:54.663Z,30.30
2022-12-23T11:17:23.319Z,30.29
2022-12-23T11:20:05.627Z,29.93
2022-12-23T11:22:32.927Z,30.02
2022-12-23T11:25:18.146Z,29.98
2022-12-23T11:27:46.003Z,30.19
2022-12-23T11:30:22.383Z,30.28
2022-12-23T11:32:50.560Z,30.25
2022-12-23T11:35:25.800Z,29.89
2022-12-23T11:37:53.263Z,30.16
2022-12-23T11:40:31.230Z,30.29
2022-12-23T11:43:06.160Z,30.32
2022-12-23T11:45:35.574Z,30.17
2022-12-23T11:48:04.007Z,30.18
2022-12-23T11:50:33.039Z,30.33
2022-12-23T11:53:27.742Z,30.35
2022-12-23T11:55:58.351Z,30.17
2022-12-23T11:58:26.207Z,30.35
2022-12-23T12:00:57.995Z,30.31
2022-12-23T12:03:35.589Z,30.37
2022-12-23T12:06:04.449Z,30.38
2022-12-23T12:08:37.114Z,30.36
2022-12-23T12:11:15.042Z,29.92
2022-12-23T12:13:43.649Z,29.79
2022-12-23T12:16:23.234Z,30.22
2022-12-23T12:18:55.451Z,30.00
2022-12-23T12:21:25.403Z,30.15
2022-12-23T12:24:17.222Z,30.12
2022-12-23T12:26:51.342Z,30.25
2022-12-23T12:29:18.850Z,30.17
2022-12-23T12:31:48.466Z,29.90
2022-12-23T12:34:21.796Z,30.13
2022-12-23T12:37:04.151Z,30.03
2022-12-23T12:39:42.713Z,30.17
2022-12-23T12:42:15.952Z,29.96
2022-12-23T12:44:43.208Z,30.24
2022-12-23T12:47:44.584Z,30.38
2022-12-23T12:50:16.281Z,30.13
2022-12-23T12:52:44.030Z,30.21
2022-12-23T12:55:18.698Z,30.33
2022-12-23T12:57:46.194Z,30.09
2022-12-23T13:00:17.873Z,30.37
2022-12-23T13:02:45.471Z,30.21
2022-12-23T13:05:28.681Z,30.15
2022-12-23T13:08:19.315Z,30.25
2022-12-23T13:10:49.309Z,30.50
2022-12-23T13:13:35.517Z,30.25
2022-12-23T13:16:02.773Z,30.55
2022-12-23T13:18:36.144Z,30.27
2022-12-23T13:21:24.315Z,30.23
2022-12-23T13:24:10.562Z,30.05
2022-12-23T13:26:40.086Z,30.17
2022-12-23T13:29:39.564Z,30.20
2022-12-23T13:32:12.697Z,30.49
2022-12-23T13:34:52.252Z,30.29
2022-12-23T13:37:35.004Z,30.19
2022-12-23T13:40:11.420Z,30.13
2022-12-23T13:42:44.204Z,30.15
2022-12-23T13:45:16.643Z,30.23
2022-12-23T13:48:10.831Z,30.27
2022-12-23T13:50:45.575Z,30.14
2022-12-23T13:53:31.421Z,30.25
2022-12-23T13:56:07.744Z,30.21
2022-12-23T13:58:35.295Z,30.43
2022-12-23T14:01:08.514Z,30.55
2022-12-23T14:03:37.049Z,30.21
2022-12-23T14:06:22.372Z,29.78
2022-12-23T14:08:50.752Z,30.18
2022-12-23T14:11:18.067Z,30.39
2022-12-23T14:13:58.525Z,30.28
2022-12-23T14:16:25.904Z,30.38
2022-12-23T14:19:01.457Z,30.22
2022-12-23T14:21:50.727Z,30.23
2022-12-23T14:24:33.281Z,30.08
2022-12-23T14:27:19.382Z,29.99
2022-12-23T14:29:46.975Z,30.57
2022-12-23T14:32:40.593Z,30.40
2022-12-23T14:35:17.980Z,30.22
2022-12-23T14:38:04.010Z,30.15
2022-12-23T14:40:37.150Z,30.41
2022-12-23T14:43:22.859Z,30.42
2022-12-23T14:45:51.454Z,30.42
2022-12-23T14:48:34.124Z,30.69
2022-12-23T14:51:10.305Z,30.32
2022-12-23T14:53:57.423Z,30.30
2022-12-23T14:56:27.787Z,30.32
2022-12-23T14:59:07.384Z,30.32
2022-12-23T15:01:37.466Z,30.47
2022-12-23T15:04:14.032Z,30.33
2022-12-23T15:07:07.534Z,30.29
2022-12-23T15:09:44.581Z,30.32
2022-12-23T15:12:18.758Z,30.63
2022-12-23T15:14:48.983Z,30.47
2022-12-23T15:17:27.715Z,30.28
2022-12-23T15:20:03.413Z,30.28
2022-12-23T15:22:32.600Z,30.32
2022-12-23T15:25:00.074Z,30.67
2022-12-23T15:27:29.719Z,30.39
2022-12-23T15:29:57.990Z,30.60
2022-12-23T15:32:25.700Z,30.31
2022-12-23T15:34:55.068Z,30.50
2022-12-23T15:37:26.730Z,30.36
2022-12-23T15:40:03.450Z,30.41
2022-12-23T15:42:32.195Z,30.33
2022-12-23T15:44:59.708Z,30.31
2022-12-23T15:47:29.219Z,30.32
2022-12-23T15:49:58.785Z,30.49
2022-12-23T15:52:27.417Z,30.33
2022-12-23T15:55:01.837Z,30.38
2022-12-23T15:57:30.282Z,30.19
2022-12-23T15:59:58.589Z,30.62
2022-12-23T16:05:32.995Z,30.39
2022-12-23T16:08:28.669Z,30.43
2022-12-23T16:11:15.836Z,30.09
2022-12-23T16:13:58.684Z,30.20
2022-12-23T16:16:32.340Z,30.30
2022-12-23T16:19:00.087Z,30.30
2022-12-23T16:21:32.491Z,30.00
2022-12-23T16:24:00.443Z,30.06
2022-12-23T16:26:27.904Z,30.21
2022-12-23T16:28:58.157Z,30.17
2022-12-23T16:31:25.843Z,29.79
2022-12-23T16:33:59.941Z,30.25
2022-12-23T16:36:27.325Z,30.25
2022-12-23T16:39:06.904Z,30.22
2022-12-23T16:41:34.617Z,30.35
2022-12-23T16:44:02.118Z,30.31
2022-12-23T16:46:34.175Z,30.29
2022-12-23T16:49:05.009Z,30.29
2022-12-23T16:51:34.264Z,30.36
2022-12-23T16:54:01.733Z,30.51
2022-12-23T16:56:38.118Z,30.33
2022-12-23T16:59:05.469Z,30.46
2022-12-23T17:01:55.515Z,30.48
2022-12-23T17:04:26.878Z,30.52
2022-12-23T17:06:54.196Z,30.42
2022-12-23T17:09:21.552Z,30.42
2022-12-23T17:11:50.744Z,30.31
2022-12-23T17:14:19.411Z,30.04
2022-12-23T17:16:46.954Z,29.68
2022-12-23T17:19:14.436Z,30.00
2022-12-23T17:21:42.730Z,30.49
2022-12-23T17:24:17.280Z,30.17
2022-12-23T17:26:44.665Z,30.31
2022-12-23T17:29:12.568Z,30.50
2022-12-23T17:31:41.160Z,30.12
2022-12-23T17:34:14.286Z,30.20
2022-12-23T17:36:49.232Z,30.23
2022-12-23T17:39:17.299Z,30.18
2022-12-23T17:41:44.644Z,30.11
2022-12-23T17:44:14.067Z,30.51
2022-12-23T17:46:41.454Z,30.15
2022-12-23T17:49:09.127Z,30.22
2022-12-23T17:51:37.713Z,30.21
2022-12-23T17:54:06.504Z,30.00
2022-12-23T17:56:33.796Z,30.31
2022-12-23T17:59:01.091Z,30.38
2022-12-23T18:01:32.780Z,30.29
2022-12-23T18:04:00.480Z,30.36
2022-12-23T18:06:28.722Z,29.91
2022-12-23T18:08:59.003Z,29.68
2022-12-23T18:11:39.102Z,29.91
2022-12-23T18:14:09.296Z,30.15
2022-12-23T18:16:36.557Z,30.34
2022-12-23T18:19:03.783Z,30.14
2022-12-23T18:21:31.418Z,30.10
2022-12-23T18:23:59.724Z,29.91
2022-12-23T18:26:26.982Z,30.15
2022-12-23T18:28:54.802Z,30.21
2022-12-23T18:31:24.034Z,30.27
2022-12-23T18:33:51.752Z,30.09
2022-12-23T18:36:23.248Z,30.16
2022-12-23T18:38:52.197Z,30.09
2022-12-23T18:41:19.916Z,30.04
2022-12-23T18:43:47.525Z,30.19
2022-12-23T18:46:14.809Z,30.17
2022-12-23T18:48:42.217Z,30.11
2022-12-23T18:51:14.715Z,29.95
2022-12-23T18:53:43.586Z,29.83
2022-12-23T18:56:14.824Z,30.31
2022-12-23T18:58:42.581Z,30.08
2022-12-23T19:01:13.620Z,29.85
2022-12-23T19:03:41.346Z,29.59
2022-12-23T19:06:09.370Z,29.17
2022-12-23T19:08:37.463Z,29.76
2022-12-23T19:11:18.750Z,30.14
2022-12-23T19:13:46.248Z,30.11
2022-12-23T19:16:18.383Z,29.95
2022-12-23T19:18:46.617Z,30.17
2022-12-23T19:21:14.188Z,30.19
2022-12-23T19:23:42.206Z,30.27
2022-12-23T19:26:10.343Z,30.09
2022-12-23T19:28:38.367Z,29.77
2022-12-23T19:31:09.873Z,30.01
2022-12-23T19:33:40.696Z,30.04
2022-12-23T19:36:15.352Z,30.36
2022-12-23T19:38:42.796Z,29.80
2022-12-23T19:41:10.151Z,30.06
2022-12-23T19:43:38.285Z,30.28
2022-12-23T19:46:07.634Z,30.14
2022-12-23T19:48:35.422Z,30.25
2022-12-23T19:51:04.503Z,30.27
2022-12-23T19:53:31.788Z,30.19
2022-12-23T19:56:07.083Z,30.10
2022-12-23T19:58:36.033Z,30.03
2022-12-23T20:01:24.042Z,29.88
2022-12-23T20:03:52.245Z,30.00
2022-12-23T20:06:22.984Z,29.82
2022-12-23T20:08:54.915Z,30.13
2022-12-23T20:11:25.795Z,29.88
2022-12-23T20:13:53.878Z,30.21
2022-12-23T20:16:21.631Z,29.52
2022-12-23T20:18:49.088Z,29.47
2022-12-23T20:21:16.346Z,29.87
2022-12-23T20:23:43.604Z,29.60
2022-12-23T20:26:12.485Z,29.81
2022-12-23T20:28:40.309Z,29.73
2022-12-23T20:31:21.107Z,29.32
2022-12-23T20:33:49.489Z,29.43
2022-12-23T20:36:18.439Z,29.68
2022-12-23T20:38:46.423Z,29.88
2022-12-23T20:41:15.051Z,29.92
2022-12-23T20:43:43.989Z,30.01
2022-12-23T20:46:14.501Z,29.91
2022-12-23T20:48:42.090Z,29.82
2022-12-23T20:51:14.244Z,30.06
2022-12-23T20:53:41.722Z,29.90
2022-12-23T20:56:11.524Z,30.14
2022-12-23T20:58:57.916Z,29.97
2022-12-23T21:01:26.873Z,29.84
2022-12-23T21:03:54.910Z,29.72
2022-12-23T21:06:22.926Z,29.99
2022-12-23T21:08:50.264Z,30.08
2022-12-23T21:11:17.544Z,30.05
2022-12-23T21:13:47.287Z,29.87
2022-12-23T21:16:15.148Z,30.05
2022-12-23T21:18:46.137Z,29.90
2022-12-23T21:21:13.522Z,29.90
2022-12-23T21:23:41.780Z,29.23
2022-12-23T21:26:16.685Z,29.14
2022-12-23T21:28:46.301Z,28.55
2022-12-23T21:31:15.481Z,29.75
2022-12-23T21:33:43.876Z,29.91
2022-12-23T21:36:16.402Z,29.87
2022-12-23T21:38:47.780Z,30.08
2022-12-23T21:41:19.807Z,29.98
2022-12-23T21:43:47.378Z,29.87
2022-12-23T21:46:15.860Z,29.98
2022-12-23T21:48:44.383Z,29.95
2022-12-23T21:51:39.076Z,30.10
2022-12-23T21:54:08.187Z,29.87
2022-12-23T21:56:35.760Z,29.61
2022-12-23T21:59:04.847Z,29.91
2022-12-23T22:01:32.768Z,29.83
2022-12-23T22:04:00.407Z,29.75
2022-12-23T22:06:32.168Z,29.71
2022-12-23T22:08:59.960Z,29.55
2022-12-23T22:11:28.417Z,29.56
2022-12-23T22:13:56.433Z,29.47
2022-12-23T22:16:24.937Z,29.61
2022-12-23T22:18:53.156Z,29.82
2022-12-23T22:21:21.726Z,29.69
2022-12-23T22:23:49.634Z,29.59
2022-12-23T22:26:24.084Z,29.59
2022-12-23T22:28:54.639Z,29.46
2022-12-23T22:31:30.800Z,29.62
2022-12-23T22:33:58.266Z,29.51
2022-12-23T22:36:25.952Z,29.47
2022-12-23T22:38:54.565Z,29.56
2022-12-23T22:41:22.427Z,29.45
2022-12-23T22:43:49.937Z,29.54
2022-12-23T22:46:18.517Z,29.49
2022-12-23T22:48:46.297Z,29.78
2022-12-23T22:51:17.721Z,29.78
2022-12-23T22:53:45.705Z,29.61
2022-12-23T22:56:13.948Z,29.59
2022-12-23T22:58:41.702Z,29.60
2022-12-23T23:01:29.333Z,29.53
2022-12-23T23:03:57.802Z,29.41
2022-12-23T23:06:26.373Z,29.41
2022-12-23T23:08:54.127Z,29.49
2022-12-23T23:11:21.690Z,29.59
2022-12-23T23:13:49.056Z,29.83
2022-12-23T23:16:16.349Z,29.74
2022-12-23T23:18:43.661Z,29.55
2022-12-23T23:21:12.704Z,29.48
2022-12-23T23:23:40.103Z,29.35
2022-12-23T23:26:10.289Z,29.69
2022-12-23T23:28:38.020Z,29.50
2022-12-23T23:31:39.646Z,29.54
2022-12-23T23:33:52.876Z,29.53
2022-12-23T23:36:20.391Z,29.54
2022-12-23T23:38:48.022Z,29.50
2022-12-23T23:41:20.674Z,29.51
2022-12-23T23:43:50.682Z,29.43
2022-12-23T23:46:18.093Z,29.65
2022-12-23T23:48:45.434Z,29.47
2022-12-23T23:51:12.945Z,29.50
2022-12-23T23:53:40.791Z,29.66
2022-12-23T23:56:08.447Z,29.56
2022-12-23T23:58:36.414Z,29.44
